createdAt,value
2023-01-17T00:01:08.308Z,0.31
2023-01-17T00:03:35.930Z,0.38
2023-01-17T00:06:04.349Z,0.44
2023-01-17T00:08:30.786Z,0.40
2023-01-17T00:10:57.429Z,0.46
2023-01-17T00:13:23.966Z,0.43
2023-01-17T00:15:50.518Z,0.37
2023-01-17T00:18:16.996Z,0.32
2023-01-17T00:20:43.454Z,0.37
2023-01-17T00:23:22.395Z,0.38
2023-01-17T00:25:48.982Z,0.34
2023-01-17T00:28:15.796Z,0.38
2023-01-17T00:30:42.315Z,0.44
2023-01-17T00:33:08.833Z,0.55
2023-01-17T00:35:35.432Z,0.66
2023-01-17T00:38:03.231Z,0.67
2023-01-17T00:40:31.059Z,0.67
2023-01-17T00:42:57.531Z,0.72
2023-01-17T00:45:24.124Z,0.67
2023-01-17T00:47:52.677Z,0.63
2023-01-17T00:50:19.592Z,0.72
2023-01-17T00:52:46.051Z,0.84
2023-01-17T00:55:12.586Z,0.80
2023-01-17T00:57:39.150Z,0.91
2023-01-17T01:00:06.359Z,1.01
2023-01-17T01:02:33.937Z,0.93
2023-01-17T01:05:00.854Z,0.90
2023-01-17T01:07:27.303Z,0.96
2023-01-17T01:09:53.785Z,1.00
2023-01-17T01:12:20.248Z,1.07
2023-01-17T01:14:46.719Z,1.22
2023-01-17T01:17:13.296Z,1.16
2023-01-17T01:19:39.770Z,1.40
2023-01-17T01:24:50.315Z,1.38
2023-01-17T01:27:16.855Z,1.39
2023-01-17T01:29:43.379Z,1.32
2023-01-17T01:32:09.845Z,1.27
2023-01-17T01:34:36.297Z,1.36
2023-01-17T01:37:02.768Z,1.41
2023-01-17T01:39:29.281Z,1.52
2023-01-17T01:41:55.724Z,1.54
2023-01-17T01:44:43.830Z,1.48
2023-01-17T01:47:26.907Z,1.35
2023-01-17T01:49:53.419Z,1.28
2023-01-17T01:52:26.015Z,1.33
2023-01-17T01:55:02.997Z,1.32
2023-01-17T01:57:34.365Z,1.44
2023-01-17T02:00:07.118Z,1.15
2023-01-17T02:02:35.183Z,1.06
2023-01-17T02:05:04.540Z,0.73
2023-01-17T02:07:39.279Z,0.73
2023-01-17T02:10:06.237Z,0.72
2023-01-17T02:12:33.529Z,0.72
2023-01-17T02:15:00.426Z,0.70
2023-01-17T02:17:59.371Z,0.54
2023-01-17T02:20:37.815Z,0.51
2023-01-17T02:23:22.951Z,0.59
2023-01-17T02:26:10.883Z,0.56
2023-01-17T02:29:04.911Z,0.50
2023-01-17T02:31:51.572Z,0.70
2023-01-17T02:34:29.701Z,0.79
2023-01-17T02:37:10.593Z,0.66
2023-01-17T02:39:47.123Z,0.80
2023-01-17T02:42:20.261Z,0.80
2023-01-17T02:44:46.708Z,1.08
2023-01-17T02:47:29.135Z,0.96
2023-01-17T02:50:05.972Z,0.96
2023-01-17T02:52:54.023Z,1.14
2023-01-17T02:55:51.430Z,0.95
2023-01-17T02:58:30.573Z,1.02
2023-01-17T03:01:08.951Z,0.88
2023-01-17T03:03:46.366Z,0.97
2023-01-17T03:06:35.151Z,1.00
2023-01-17T03:09:03.302Z,0.95
2023-01-17T03:11:30.102Z,0.92
2023-01-17T03:13:59.731Z,1.08
2023-01-17T03:16:32.315Z,1.13
2023-01-17T03:18:58.985Z,1.11
2023-01-17T03:21:25.492Z,0.94
2023-01-17T03:23:52.033Z,0.91
2023-01-17T03:26:18.511Z,0.94
2023-01-17T03:28:45.053Z,1.10
2023-01-17T03:31:16.087Z,1.18
2023-01-17T03:33:42.634Z,1.05
2023-01-17T03:36:09.130Z,0.98
2023-01-17T03:38:35.580Z,1.25
2023-01-17T03:41:02.038Z,1.27
2023-01-17T03:43:28.503Z,0.98
2023-01-17T03:46:05.868Z,0.99
2023-01-17T03:48:32.445Z,1.24
2023-01-17T03:50:59.048Z,0.95
2023-01-17T03:53:25.756Z,1.13
2023-01-17T03:55:52.183Z,0.75
2023-01-17T03:58:18.635Z,0.90
2023-01-17T04:00:45.095Z,0.94
2023-01-17T04:03:11.550Z,0.98
2023-01-17T04:05:37.982Z,1.04
2023-01-17T04:08:04.616Z,0.88
2023-01-17T04:10:31.083Z,0.94
2023-01-17T04:12:57.533Z,1.04
2023-01-17T04:15:24.043Z,1.08
2023-01-17T04:17:50.855Z,1.06
2023-01-17T04:20:30.671Z,1.13
2023-01-17T04:22:57.134Z,1.37
2023-01-17T04:25:23.717Z,1.27
2023-01-17T04:27:50.169Z,1.19
2023-01-17T04:30:16.657Z,1.10
2023-01-17T04:32:43.125Z,1.16
2023-01-17T04:35:09.804Z,1.03
2023-01-17T04:37:36.553Z,1.11
2023-01-17T04:40:04.767Z,0.99
2023-01-17T04:42:31.259Z,1.03
2023-01-17T04:44:57.715Z,0.98
2023-01-17T04:47:24.177Z,0.93
2023-01-17T04:49:50.654Z,1.10
2023-01-17T04:52:17.377Z,1.18
2023-01-17T04:54:44.163Z,1.16
2023-01-17T04:57:10.642Z,1.04
2023-01-17T04:59:37.089Z,1.22
2023-01-17T05:02:03.617Z,1.01
2023-01-17T05:04:30.234Z,1.17
2023-01-17T05:06:56.691Z,1.10
2023-01-17T05:09:23.190Z,1.14
2023-01-17T05:11:49.679Z,1.18
2023-01-17T05:14:16.156Z,1.16
2023-01-17T05:16:42.609Z,1.01
2023-01-17T05:19:09.141Z,1.19
2023-01-17T05:21:35.603Z,1.06
2023-01-17T05:24:02.044Z,0.95
2023-01-17T05:26:28.496Z,1.10
2023-01-17T05:28:54.938Z,1.03
2023-01-17T05:31:21.430Z,1.00
2023-01-17T05:33:47.913Z,1.06
2023-01-17T05:36:14.356Z,1.11
2023-01-17T05:38:40.805Z,1.12
2023-01-17T05:41:07.318Z,1.01
2023-01-17T05:43:33.763Z,1.15
2023-01-17T05:46:00.334Z,1.17
2023-01-17T05:48:26.788Z,1.27
2023-01-17T05:50:53.244Z,1.06
2023-01-17T05:53:19.798Z,1.26
2023-01-17T05:55:46.646Z,1.34
2023-01-17T05:58:19.351Z,1.26
2023-01-17T06:00:46.642Z,1.45
2023-01-17T06:03:13.652Z,1.51
2023-01-17T06:05:41.379Z,1.90
2023-01-17T06:08:07.959Z,1.73
2023-01-17T06:10:34.895Z,1.16
2023-01-17T06:13:02.678Z,1.11
2023-01-17T06:15:29.147Z,1.00
2023-01-17T06:17:55.909Z,1.98
2023-01-17T06:20:22.539Z,2.62
2023-01-17T06:22:49.055Z,2.03
2023-01-17T06:25:15.792Z,1.45
2023-01-17T06:27:42.252Z,1.54
2023-01-17T06:30:09.901Z,1.43
2023-01-17T06:32:36.503Z,1.74
2023-01-17T06:35:02.973Z,1.73
2023-01-17T06:37:29.448Z,1.24
2023-01-17T06:39:55.903Z,1.08
2023-01-17T06:42:22.504Z,1.24
2023-01-17T06:44:48.969Z,1.60
2023-01-17T06:47:15.412Z,1.68
2023-01-17T06:49:41.930Z,2.34
2023-01-17T06:52:08.408Z,2.78
2023-01-17T06:54:34.859Z,2.53
2023-01-17T06:57:01.305Z,2.23
2023-01-17T06:59:27.798Z,1.89
2023-01-17T07:01:54.237Z,1.75
2023-01-17T07:04:20.675Z,1.47
2023-01-17T07:06:50.358Z,1.88
2023-01-17T07:09:16.880Z,1.96
2023-01-17T07:11:43.378Z,1.66
2023-01-17T07:14:13.796Z,2.51
2023-01-17T07:16:40.487Z,2.44
2023-01-17T07:19:06.998Z,2.38
2023-01-17T07:21:33.446Z,2.82
2023-01-17T07:23:59.932Z,2.61
2023-01-17T07:26:26.424Z,2.34
2023-01-17T07:28:52.884Z,2.13
2023-01-17T07:31:19.356Z,2.24
2023-01-17T07:33:45.825Z,2.06
2023-01-17T07:36:12.352Z,2.21
2023-01-17T07:38:38.827Z,2.03
2023-01-17T07:41:05.283Z,2.31
2023-01-17T07:43:31.752Z,2.09
2023-01-17T07:45:58.203Z,2.11
2023-01-17T07:48:24.849Z,2.41
2023-01-17T07:50:56.635Z,2.71
2023-01-17T07:53:28.150Z,1.89
2023-01-17T07:55:55.319Z,1.69
2023-01-17T07:58:22.106Z,1.62
2023-01-17T08:00:48.735Z,2.35
2023-01-17T08:03:17.747Z,2.74
2023-01-17T08:05:54.321Z,2.69
2023-01-17T08:08:21.492Z,2.96
2023-01-17T08:10:47.969Z,2.89
2023-01-17T08:13:14.440Z,2.87
2023-01-17T08:15:40.977Z,3.81
2023-01-17T08:18:07.581Z,5.58
2023-01-17T08:20:34.136Z,4.90
2023-01-17T08:23:00.650Z,2.92
2023-01-17T08:25:27.190Z,3.88
2023-01-17T08:27:57.472Z,4.37
2023-01-17T08:30:25.108Z,3.21
2023-01-17T08:32:51.822Z,3.30
2023-01-17T08:35:18.511Z,3.41
2023-01-17T08:37:45.116Z,3.22
2023-01-17T08:40:11.898Z,2.99
2023-01-17T08:42:38.995Z,2.54
2023-01-17T08:45:08.170Z,2.75
2023-01-17T08:47:35.242Z,3.59
2023-01-17T08:50:01.796Z,2.98
2023-01-17T08:52:28.549Z,2.20
2023-01-17T08:54:55.105Z,1.76
2023-01-17T08:57:22.199Z,1.98
2023-01-17T08:59:48.701Z,2.69
2023-01-17T09:02:17.521Z,2.72
2023-01-17T09:04:45.874Z,3.17
2023-01-17T09:07:12.484Z,3.11
2023-01-17T09:09:38.956Z,3.88
2023-01-17T09:12:05.727Z,3.67
2023-01-17T09:14:32.888Z,3.94
2023-01-17T09:16:59.851Z,4.40
2023-01-17T09:19:26.416Z,6.09
2023-01-17T09:21:52.891Z,5.89
2023-01-17T09:24:19.376Z,5.67
2023-01-17T09:26:46.907Z,4.80
2023-01-17T09:29:13.695Z,4.64
2023-01-17T09:31:40.143Z,4.36
2023-01-17T09:34:06.740Z,6.07
2023-01-17T09:36:33.225Z,8.93
2023-01-17T09:39:00.697Z,5.14
2023-01-17T09:41:40.958Z,3.90
2023-01-17T09:44:28.002Z,4.56
2023-01-17T09:47:01.881Z,5.71
2023-01-17T09:49:43.355Z,2.76
2023-01-17T09:52:17.434Z,2.21
2023-01-17T09:54:47.671Z,2.38
2023-01-17T09:57:27.256Z,1.94
2023-01-17T10:00:15.012Z,1.63
2023-01-17T10:02:52.300Z,1.47
2023-01-17T10:05:44.622Z,1.55
2023-01-17T10:08:32.688Z,1.38
2023-01-17T10:11:08.127Z,1.05
2023-01-17T10:13:40.530Z,1.23
2023-01-17T10:16:18.826Z,1.06
2023-01-17T10:19:27.699Z,1.37
2023-01-17T10:22:12.056Z,1.40
2023-01-17T10:25:15.118Z,1.65
2023-01-17T10:27:53.459Z,1.42
2023-01-17T10:30:46.999Z,1.31
2023-01-17T10:33:29.905Z,1.42
2023-01-17T10:36:15.176Z,1.69
2023-01-17T10:38:51.089Z,1.75
2023-01-17T10:41:54.597Z,1.78
2023-01-17T10:44:29.917Z,1.98
2023-01-17T10:47:18.474Z,1.75
2023-01-17T10:49:55.066Z,1.51
2023-01-17T10:52:42.528Z,1.83
2023-01-17T10:55:27.012Z,1.90
2023-01-17T10:57:54.359Z,1.60
2023-01-17T11:00:41.086Z,1.25
2023-01-17T11:03:11.097Z,1.30
2023-01-17T11:05:37.816Z,1.40
2023-01-17T11:08:06.827Z,1.36
2023-01-17T11:10:52.097Z,1.55
2023-01-17T11:13:35.844Z,1.91
2023-01-17T11:16:17.858Z,3.18
2023-01-17T11:18:44.943Z,3.89
2023-01-17T11:21:22.847Z,1.95
2023-01-17T11:23:53.842Z,2.03
2023-01-17T11:26:25.811Z,2.25
2023-01-17T11:28:52.251Z,1.88
2023-01-17T11:31:18.728Z,2.07
2023-01-17T11:33:49.245Z,1.81
2023-01-17T11:36:17.441Z,2.31
2023-01-17T11:38:58.894Z,2.57
2023-01-17T11:41:27.107Z,3.24
2023-01-17T11:43:56.591Z,2.48
2023-01-17T11:46:23.099Z,2.39
2023-01-17T11:48:56.281Z,2.41
2023-01-17T11:51:42.241Z,2.38
2023-01-17T11:54:24.897Z,2.92
2023-01-17T11:57:01.192Z,2.97
2023-01-17T11:59:36.915Z,3.60
2023-01-17T12:02:22.036Z,2.25
2023-01-17T12:05:18.067Z,2.12
2023-01-17T12:08:28.038Z,2.34
2023-01-17T12:11:16.389Z,2.93
2023-01-17T12:14:02.730Z,2.53
2023-01-17T12:16:51.023Z,3.00
2023-01-17T12:19:24.727Z,2.55
2023-01-17T12:21:59.000Z,2.36
2023-01-17T12:24:57.565Z,2.29
2023-01-17T12:27:48.673Z,3.44
2023-01-17T12:30:44.462Z,4.03
2023-01-17T12:33:25.678Z,2.78
2023-01-17T12:36:33.588Z,2.56
2023-01-17T12:39:06.412Z,3.48
2023-01-17T12:41:44.832Z,3.42
2023-01-17T12:44:17.974Z,3.67
2023-01-17T12:46:54.829Z,3.06
2023-01-17T12:49:45.618Z,2.89
2023-01-17T12:52:18.183Z,3.81
2023-01-17T12:54:51.445Z,4.06
2023-01-17T12:57:25.176Z,2.97
2023-01-17T13:00:04.909Z,2.89
2023-01-17T13:02:56.129Z,4.11
2023-01-17T13:05:39.590Z,3.89
2023-01-17T13:08:18.205Z,3.64
2023-01-17T13:10:53.327Z,3.24
2023-01-17T13:13:23.584Z,2.92
2023-01-17T13:16:00.138Z,2.99
2023-01-17T13:18:29.111Z,2.91
2023-01-17T13:21:28.787Z,2.82
2023-01-17T13:23:57.882Z,4.75
2023-01-17T13:26:30.294Z,3.15
2023-01-17T13:29:24.794Z,2.54
2023-01-17T13:32:15.154Z,2.10
2023-01-17T13:35:01.767Z,2.14
2023-01-17T13:37:52.867Z,2.09
2023-01-17T13:40:33.932Z,2.15
2023-01-17T13:43:12.008Z,2.59
2023-01-17T13:45:39.513Z,3.00
2023-01-17T13:48:12.042Z,4.42
2023-01-17T13:50:38.490Z,4.10
2023-01-17T13:53:35.757Z,3.87
2023-01-17T13:56:10.502Z,2.93
2023-01-17T13:58:45.798Z,1.30
2023-01-17T14:01:12.540Z,0.70
2023-01-17T14:03:51.183Z,0.69
2023-01-17T14:06:33.079Z,1.20
2023-01-17T14:09:08.417Z,1.29
2023-01-17T14:11:56.716Z,1.39
2023-01-17T14:14:39.791Z,2.06
2023-01-17T14:17:18.226Z,1.65
2023-01-17T14:19:51.300Z,1.69
2023-01-17T14:22:20.850Z,1.68
2023-01-17T14:25:15.788Z,1.59
2023-01-17T14:27:42.254Z,1.58
2023-01-17T14:30:18.122Z,1.38
2023-01-17T14:32:59.889Z,1.48
2023-01-17T14:35:48.646Z,1.88
2023-01-17T14:38:22.671Z,2.16
2023-01-17T14:40:56.692Z,1.93
2023-01-17T14:43:26.778Z,1.83
2023-01-17T14:45:58.587Z,1.96
2023-01-17T14:48:26.036Z,2.43
2023-01-17T14:50:54.809Z,2.31
2023-01-17T14:53:26.387Z,2.44
2023-01-17T14:55:56.723Z,1.96
2023-01-17T14:58:33.796Z,1.90
2023-01-17T15:01:10.731Z,2.37
2023-01-17T15:03:57.581Z,2.57
2023-01-17T15:06:33.044Z,2.78
2023-01-17T15:08:59.628Z,3.16
2023-01-17T15:11:29.536Z,2.86
2023-01-17T15:13:59.782Z,2.67
2023-01-17T15:16:29.848Z,2.59
2023-01-17T15:18:57.406Z,3.15
2023-01-17T15:21:28.196Z,3.18
2023-01-17T15:24:07.509Z,3.27
2023-01-17T15:26:36.018Z,3.70
2023-01-17T15:29:08.618Z,3.20
2023-01-17T15:31:45.289Z,3.03
2023-01-17T15:34:20.627Z,2.98
2023-01-17T15:36:49.580Z,3.89
2023-01-17T15:39:23.878Z,4.07
2023-01-17T15:41:56.622Z,3.42
2023-01-17T15:44:47.678Z,3.71
2023-01-17T15:47:35.819Z,3.35
2023-01-17T15:50:22.131Z,3.05
2023-01-17T15:52:57.459Z,2.73
2023-01-17T15:55:45.291Z,3.23
2023-01-17T15:58:24.632Z,3.85
2023-01-17T16:00:51.299Z,4.18
2023-01-17T16:03:25.894Z,3.64
2023-01-17T16:05:54.493Z,3.41
2023-01-17T16:08:31.774Z,2.78
2023-01-17T16:11:04.060Z,3.19
2023-01-17T16:13:33.389Z,3.46
2023-01-17T16:16:11.169Z,3.21
2023-01-17T16:18:37.924Z,2.80
2023-01-17T16:21:19.419Z,2.77
2023-01-17T16:23:46.448Z,2.95
2023-01-17T16:26:12.976Z,3.08
2023-01-17T16:28:39.580Z,3.34
2023-01-17T16:31:06.409Z,2.29
2023-01-17T16:33:33.142Z,2.18
2023-01-17T16:35:59.633Z,2.74
2023-01-17T16:38:26.128Z,2.09
2023-01-17T16:40:52.632Z,2.43
2023-01-17T16:43:19.666Z,1.61
2023-01-17T16:45:51.183Z,1.17
2023-01-17T16:48:19.338Z,1.14
2023-01-17T16:50:48.756Z,1.43
2023-01-17T16:53:19.735Z,1.83
2023-01-17T16:55:46.179Z,1.65
2023-01-17T16:58:12.684Z,1.75
2023-01-17T17:00:39.994Z,2.00
2023-01-17T17:03:06.527Z,1.87
2023-01-17T17:05:33.151Z,1.78
2023-01-17T17:08:00.851Z,1.78
2023-01-17T17:10:27.459Z,1.82
2023-01-17T17:12:53.939Z,1.86
2023-01-17T17:15:20.631Z,1.98
2023-01-17T17:17:47.142Z,1.92
2023-01-17T17:20:15.464Z,2.08
2023-01-17T17:22:48.980Z,2.17
2023-01-17T17:25:15.781Z,1.59
2023-01-17T17:27:42.644Z,1.86
2023-01-17T17:30:09.932Z,2.11
2023-01-17T17:32:36.419Z,2.58
2023-01-17T17:35:03.059Z,2.40
2023-01-17T17:37:29.512Z,2.94
2023-01-17T17:39:56.512Z,3.24
2023-01-17T17:42:23.155Z,3.31
2023-01-17T17:44:49.644Z,3.74
2023-01-17T17:47:16.164Z,4.14
2023-01-17T17:49:42.632Z,3.18
2023-01-17T17:52:09.321Z,2.79
2023-01-17T17:54:36.143Z,2.76
2023-01-17T17:57:02.761Z,2.86
2023-01-17T17:59:29.197Z,3.55
2023-01-17T18:01:55.688Z,4.39
2023-01-17T18:04:22.162Z,2.66
2023-01-17T18:06:48.644Z,2.49
2023-01-17T18:09:15.122Z,2.56
2023-01-17T18:11:42.970Z,2.62
2023-01-17T18:14:14.126Z,2.76
2023-01-17T18:16:43.295Z,2.70
2023-01-17T18:19:20.491Z,2.80
2023-01-17T18:21:47.923Z,2.42
2023-01-17T18:24:16.691Z,2.53
2023-01-17T18:26:54.949Z,2.32
2023-01-17T18:29:22.570Z,2.47
2023-01-17T18:31:51.428Z,2.54
2023-01-17T18:34:20.783Z,2.02
2023-01-17T18:36:47.837Z,2.19
2023-01-17T18:39:19.243Z,2.26
2023-01-17T18:41:46.371Z,2.60
2023-01-17T18:44:12.865Z,2.25
2023-01-17T18:46:40.194Z,2.52
2023-01-17T18:49:06.814Z,2.81
2023-01-17T18:51:34.181Z,2.62
2023-01-17T18:54:01.911Z,2.23
2023-01-17T18:56:28.676Z,1.99
2023-01-17T18:58:55.139Z,1.78
2023-01-17T19:01:27.548Z,2.11
2023-01-17T19:03:57.840Z,2.16
2023-01-17T19:06:34.078Z,2.23
2023-01-17T19:09:01.785Z,2.46
2023-01-17T19:11:28.613Z,2.62
2023-01-17T19:13:56.031Z,3.06
2023-01-17T19:16:28.359Z,3.17
2023-01-17T19:18:57.499Z,2.97
2023-01-17T19:21:26.475Z,2.54
2023-01-17T19:23:53.903Z,2.61
2023-01-17T19:26:21.000Z,2.79
2023-01-17T19:28:49.047Z,3.26
2023-01-17T19:31:22.306Z,4.10
2023-01-17T19:33:51.429Z,3.70
2023-01-17T19:36:21.247Z,4.40
2023-01-17T19:39:02.931Z,5.03
2023-01-17T19:41:31.705Z,5.47
2023-01-17T19:44:01.205Z,5.62
2023-01-17T19:46:28.224Z,6.95
2023-01-17T19:48:56.645Z,7.59
2023-01-17T19:51:24.648Z,6.83
2023-01-17T19:53:51.303Z,6.74
2023-01-17T19:56:21.069Z,6.09
2023-01-17T19:58:48.473Z,5.86
2023-01-17T20:01:24.656Z,6.38
2023-01-17T20:03:51.992Z,5.07
2023-01-17T20:06:21.990Z,4.82
2023-01-17T20:08:48.503Z,4.61
2023-01-17T20:11:21.635Z,4.37
2023-01-17T20:13:51.402Z,4.80
2023-01-17T20:16:18.202Z,5.83
2023-01-17T20:18:45.022Z,5.59
2023-01-17T20:21:20.807Z,5.90
2023-01-17T20:23:48.538Z,5.30
2023-01-17T20:26:34.659Z,4.87
2023-01-17T20:29:11.075Z,5.16
2023-01-17T20:31:39.432Z,5.01
2023-01-17T20:34:07.865Z,4.75
2023-01-17T20:36:34.562Z,3.38
2023-01-17T20:39:03.993Z,3.24
2023-01-17T20:41:39.416Z,3.53
2023-01-17T20:44:09.098Z,3.62
2023-01-17T20:46:40.285Z,3.03
2023-01-17T20:49:11.297Z,2.78
2023-01-17T20:51:37.795Z,2.93
2023-01-17T20:54:05.538Z,3.19
2023-01-17T20:56:32.524Z,3.30
2023-01-17T20:58:59.065Z,3.46
2023-01-17T21:01:25.591Z,3.51
2023-01-17T21:03:52.138Z,3.93
2023-01-17T21:06:20.984Z,4.06
2023-01-17T21:08:48.948Z,3.76
2023-01-17T21:11:19.065Z,3.83
2023-01-17T21:13:46.169Z,3.38
2023-01-17T21:16:12.752Z,3.14
2023-01-17T21:18:39.930Z,3.16
2023-01-17T21:21:27.552Z,2.73
2023-01-17T21:23:55.961Z,2.61
2023-01-17T21:26:24.541Z,2.09
2023-01-17T21:28:52.306Z,1.87
2023-01-17T21:31:28.400Z,1.55
2023-01-17T21:33:57.785Z,1.40
2023-01-17T21:36:28.062Z,1.26
2023-01-17T21:38:57.179Z,1.37
2023-01-17T21:41:29.897Z,1.44
2023-01-17T21:43:58.831Z,1.26
2023-01-17T21:46:26.456Z,1.33
2023-01-17T21:48:53.023Z,1.51
2023-01-17T21:51:20.292Z,1.28
2023-01-17T21:53:46.816Z,1.28
2023-01-17T21:56:13.992Z,1.51
2023-01-17T21:58:40.448Z,1.27
2023-01-17T22:01:07.660Z,1.27
2023-01-17T22:03:35.575Z,1.11
2023-01-17T22:06:02.094Z,1.23
2023-01-17T22:08:33.564Z,1.23
2023-01-17T22:11:11.407Z,1.53
2023-01-17T22:13:40.096Z,1.61
2023-01-17T22:16:09.679Z,1.61
2023-01-17T22:18:38.390Z,1.76
2023-01-17T22:21:16.030Z,2.01
2023-01-17T22:23:51.192Z,3.69
2023-01-17T22:26:19.502Z,2.82
2023-01-17T22:28:45.990Z,1.93
2023-01-17T22:31:20.938Z,1.46
2023-01-17T22:33:55.628Z,1.18
2023-01-17T22:36:22.903Z,1.04
2023-01-17T22:38:50.041Z,0.93
2023-01-17T22:41:19.506Z,0.97
2023-01-17T22:43:48.890Z,1.00
2023-01-17T22:46:18.940Z,0.96
2023-01-17T22:48:46.311Z,1.09
2023-01-17T22:51:18.366Z,1.35
2023-01-17T22:53:50.053Z,1.16
2023-01-17T22:56:19.076Z,1.18
2023-01-17T22:58:45.589Z,1.17
2023-01-17T23:01:20.718Z,1.15
2023-01-17T23:03:54.532Z,1.27
2023-01-17T23:06:26.903Z,1.24
2023-01-17T23:08:56.478Z,1.28
2023-01-17T23:11:25.757Z,1.26
2023-01-17T23:13:52.983Z,1.46
2023-01-17T23:16:19.521Z,1.51
2023-01-17T23:18:46.001Z,1.39
2023-01-17T23:21:12.487Z,1.40
2023-01-17T23:23:38.956Z,1.17
2023-01-17T23:26:05.412Z,1.00
2023-01-17T23:28:31.860Z,1.03
2023-01-17T23:31:02.878Z,1.12
2023-01-17T23:33:29.391Z,1.05
2023-01-17T23:35:55.859Z,1.19
2023-01-17T23:38:22.312Z,1.18
2023-01-17T23:40:49.303Z,1.33
2023-01-17T23:43:15.773Z,1.26
2023-01-17T23:45:42.310Z,1.27
2023-01-17T23:48:09.077Z,1.31
2023-01-17T23:50:40.280Z,1.23
2023-01-17T23:53:08.110Z,1.41
2023-01-17T23:55:41.199Z,1.48
2023-01-17T23:58:09.831Z,1.31
